sensor_id;sensor_type;location;lat;lon;timestamp;P1;durP1;ratioP1;P2;durP2;ratioP2
8312;SDS011;4194;43.408;24.626;2023-12-20T00:00:25;22.97;;;15.10;;
8312;SDS011;4194;43.408;24.626;2023-12-20T00:02:51;19.13;;;12.70;;
8312;SDS011;4194;43.408;24.626;2023-12-20T00:05:17;17.77;;;12.57;;
8312;SDS011;4194;43.408;24.626;2023-12-20T00:07:42;21.23;;;10.63;;
8312;SDS011;4194;43.408;24.626;2023-12-20T00:10:08;16.47;;;10.07;;
8312;SDS011;4194;43.408;24.626;2023-12-20T00:12:34;18.77;;;10.03;;
8312;SDS011;4194;43.408;24.626;2023-12-20T00:15:00;15.63;;;9.37;;
8312;SDS011;4194;43.408;24.626;2023-12-20T00:17:25;22.30;;;11.37;;
8312;SDS011;4194;43.408;24.626;2023-12-20T00:19:51;18.20;;;12.00;;
8312;SDS011;4194;43.408;24.626;2023-12-20T00:22:17;21.33;;;12.07;;
8312;SDS011;4194;43.408;24.626;2023-12-20T00:24:42;19.73;;;11.73;;
8312;SDS011;4194;43.408;24.626;2023-12-20T00:27:08;22.07;;;11.83;;
8312;SDS011;4194;43.408;24.626;2023-12-20T00:29:33;20.23;;;11.30;;
8312;SDS011;4194;43.408;24.626;2023-12-20T00:31:59;16.30;;;9.67;;
8312;SDS011;4194;43.408;24.626;2023-12-20T00:34:25;10.63;;;6.30;;
8312;SDS011;4194;43.408;24.626;2023-12-20T00:36:50;8.90;;;6.40;;
8312;SDS011;4194;43.408;24.626;2023-12-20T00:39:16;9.00;;;5.27;;
8312;SDS011;4194;43.408;24.626;2023-12-20T00:41:42;7.87;;;5.40;;
8312;SDS011;4194;43.408;24.626;2023-12-20T00:44:07;11.93;;;7.70;;
8312;SDS011;4194;43.408;24.626;2023-12-20T00:46:33;13.23;;;6.77;;
8312;SDS011;4194;43.408;24.626;2023-12-20T00:48:59;8.60;;;5.10;;
8312;SDS011;4194;43.408;24.626;2023-12-20T00:51:24;8.83;;;4.73;;
8312;SDS011;4194;43.408;24.626;2023-12-20T00:53:50;6.83;;;4.90;;
8312;SDS011;4194;43.408;24.626;2023-12-20T00:56:19;5.90;;;5.07;;
8312;SDS011;4194;43.408;24.626;2023-12-20T00:58:45;6.97;;;4.73;;
8312;SDS011;4194;43.408;24.626;2023-12-20T01:01:11;6.33;;;4.80;;
8312;SDS011;4194;43.408;24.626;2023-12-20T01:03:37;7.67;;;4.60;;
8312;SDS011;4194;43.408;24.626;2023-12-20T01:06:03;8.50;;;6.23;;
8312;SDS011;4194;43.408;24.626;2023-12-20T01:08:30;10.43;;;6.50;;
8312;SDS011;4194;43.408;24.626;2023-12-20T01:10:56;10.47;;;6.07;;
8312;SDS011;4194;43.408;24.626;2023-12-20T01:13:21;9.00;;;4.80;;
8312;SDS011;4194;43.408;24.626;2023-12-20T01:15:47;9.80;;;5.53;;
8312;SDS011;4194;43.408;24.626;2023-12-20T01:18:13;7.87;;;5.10;;
8312;SDS011;4194;43.408;24.626;2023-12-20T01:20:39;9.93;;;5.33;;
8312;SDS011;4194;43.408;24.626;2023-12-20T01:23:05;15.20;;;5.80;;
8312;SDS011;4194;43.408;24.626;2023-12-20T01:25:31;12.67;;;6.00;;
8312;SDS011;4194;43.408;24.626;2023-12-20T01:27:56;20.63;;;8.67;;
8312;SDS011;4194;43.408;24.626;2023-12-20T01:30:22;21.23;;;9.10;;
8312;SDS011;4194;43.408;24.626;2023-12-20T01:32:48;11.77;;;7.90;;
8312;SDS011;4194;43.408;24.626;2023-12-20T01:35:13;12.30;;;6.90;;
8312;SDS011;4194;43.408;24.626;2023-12-20T01:37:39;14.33;;;7.00;;
8312;SDS011;4194;43.408;24.626;2023-12-20T01:40:05;18.87;;;6.90;;
8312;SDS011;4194;43.408;24.626;2023-12-20T01:42:31;13.53;;;7.30;;
8312;SDS011;4194;43.408;24.626;2023-12-20T01:44:57;13.40;;;6.83;;
8312;SDS011;4194;43.408;24.626;2023-12-20T01:47:22;18.57;;;9.10;;
8312;SDS011;4194;43.408;24.626;2023-12-20T01:49:48;17.90;;;8.80;;
8312;SDS011;4194;43.408;24.626;2023-12-20T01:52:15;16.53;;;8.37;;
8312;SDS011;4194;43.408;24.626;2023-12-20T01:54:41;16.17;;;7.40;;
8312;SDS011;4194;43.408;24.626;2023-12-20T01:57:08;12.67;;;7.87;;
8312;SDS011;4194;43.408;24.626;2023-12-20T01:59:35;10.60;;;6.33;;
8312;SDS011;4194;43.408;24.626;2023-12-20T02:02:00;16.53;;;7.00;;
8312;SDS011;4194;43.408;24.626;2023-12-20T02:04:28;10.97;;;6.10;;
8312;SDS011;4194;43.408;24.626;2023-12-20T02:06:54;9.03;;;4.77;;
8312;SDS011;4194;43.408;24.626;2023-12-20T02:09:21;8.00;;;4.70;;
8312;SDS011;4194;43.408;24.626;2023-12-20T02:11:47;8.83;;;4.87;;
8312;SDS011;4194;43.408;24.626;2023-12-20T02:14:14;10.70;;;5.50;;
8312;SDS011;4194;43.408;24.626;2023-12-20T02:16:40;5.67;;;3.77;;
8312;SDS011;4194;43.408;24.626;2023-12-20T02:19:09;9.77;;;4.73;;
8312;SDS011;4194;43.408;24.626;2023-12-20T02:21:39;9.50;;;5.53;;
8312;SDS011;4194;43.408;24.626;2023-12-20T02:24:05;11.47;;;4.67;;
8312;SDS011;4194;43.408;24.626;2023-12-20T02:26:31;8.90;;;5.67;;
8312;SDS011;4194;43.408;24.626;2023-12-20T02:28:58;11.80;;;6.30;;
8312;SDS011;4194;43.408;24.626;2023-12-20T02:31:24;12.07;;;6.10;;
8312;SDS011;4194;43.408;24.626;2023-12-20T02:33:50;10.37;;;5.27;;
8312;SDS011;4194;43.408;24.626;2023-12-20T02:36:15;9.33;;;5.93;;
8312;SDS011;4194;43.408;24.626;2023-12-20T02:38:41;7.53;;;4.93;;
8312;SDS011;4194;43.408;24.626;2023-12-20T02:41:07;7.13;;;4.87;;
8312;SDS011;4194;43.408;24.626;2023-12-20T02:43:32;9.83;;;5.10;;
8312;SDS011;4194;43.408;24.626;2023-12-20T02:45:58;10.47;;;5.00;;
8312;SDS011;4194;43.408;24.626;2023-12-20T02:48:24;12.47;;;5.77;;
8312;SDS011;4194;43.408;24.626;2023-12-20T02:50:49;10.67;;;5.80;;
8312;SDS011;4194;43.408;24.626;2023-12-20T02:53:16;13.37;;;6.90;;
8312;SDS011;4194;43.408;24.626;2023-12-20T02:55:41;11.33;;;7.00;;
8312;SDS011;4194;43.408;24.626;2023-12-20T02:58:07;14.33;;;7.80;;
8312;SDS011;4194;43.408;24.626;2023-12-20T03:00:33;16.33;;;8.40;;
8312;SDS011;4194;43.408;24.626;2023-12-20T03:02:59;16.87;;;9.10;;
8312;SDS011;4194;43.408;24.626;2023-12-20T03:05:25;15.13;;;8.00;;
8312;SDS011;4194;43.408;24.626;2023-12-20T03:07:50;17.90;;;10.23;;
8312;SDS011;4194;43.408;24.626;2023-12-20T03:10:16;22.50;;;12.20;;
8312;SDS011;4194;43.408;24.626;2023-12-20T03:12:43;45.50;;;32.83;;
8312;SDS011;4194;43.408;24.626;2023-12-20T03:15:09;41.40;;;32.10;;
8312;SDS011;4194;43.408;24.626;2023-12-20T03:17:36;34.23;;;26.43;;
8312;SDS011;4194;43.408;24.626;2023-12-20T03:20:01;28.33;;;19.03;;
8312;SDS011;4194;43.408;24.626;2023-12-20T03:22:27;24.90;;;16.97;;
8312;SDS011;4194;43.408;24.626;2023-12-20T03:24:53;26.50;;;16.00;;
8312;SDS011;4194;43.408;24.626;2023-12-20T03:27:19;25.23;;;15.00;;
8312;SDS011;4194;43.408;24.626;2023-12-20T03:29:44;20.17;;;12.20;;
8312;SDS011;4194;43.408;24.626;2023-12-20T03:32:10;23.87;;;12.20;;
8312;SDS011;4194;43.408;24.626;2023-12-20T03:34:36;19.00;;;10.53;;
8312;SDS011;4194;43.408;24.626;2023-12-20T03:37:01;21.00;;;10.73;;
8312;SDS011;4194;43.408;24.626;2023-12-20T03:39:27;21.37;;;8.83;;
8312;SDS011;4194;43.408;24.626;2023-12-20T03:41:53;19.83;;;10.03;;
8312;SDS011;4194;43.408;24.626;2023-12-20T03:44:18;19.67;;;11.47;;
8312;SDS011;4194;43.408;24.626;2023-12-20T03:46:45;15.40;;;10.30;;
8312;SDS011;4194;43.408;24.626;2023-12-20T03:49:11;19.77;;;13.33;;
8312;SDS011;4194;43.408;24.626;2023-12-20T03:51:37;19.60;;;12.30;;
8312;SDS011;4194;43.408;24.626;2023-12-20T03:54:02;24.73;;;13.20;;
8312;SDS011;4194;43.408;24.626;2023-12-20T03:56:28;17.77;;;10.93;;
8312;SDS011;4194;43.408;24.626;2023-12-20T03:58:54;23.23;;;11.67;;
8312;SDS011;4194;43.408;24.626;2023-12-20T04:01:20;20.50;;;11.40;;
8312;SDS011;4194;43.408;24.626;2023-12-20T04:03:45;21.67;;;12.40;;
8312;SDS011;4194;43.408;24.626;2023-12-20T04:06:16;20.60;;;12.00;;
8312;SDS011;4194;43.408;24.626;2023-12-20T04:08:42;22.37;;;11.97;;
8312;SDS011;4194;43.408;24.626;2023-12-20T04:11:08;19.73;;;10.70;;
8312;SDS011;4194;43.408;24.626;2023-12-20T04:13:33;16.13;;;10.20;;
8312;SDS011;4194;43.408;24.626;2023-12-20T04:15:59;16.33;;;8.90;;
8312;SDS011;4194;43.408;24.626;2023-12-20T04:18:25;16.67;;;9.17;;
8312;SDS011;4194;43.408;24.626;2023-12-20T04:20:51;21.43;;;10.33;;
8312;SDS011;4194;43.408;24.626;2023-12-20T04:23:17;20.50;;;11.10;;
8312;SDS011;4194;43.408;24.626;2023-12-20T04:25:42;19.97;;;10.37;;
8312;SDS011;4194;43.408;24.626;2023-12-20T04:28:08;24.60;;;11.13;;
8312;SDS011;4194;43.408;24.626;2023-12-20T04:30:33;22.80;;;10.73;;
8312;SDS011;4194;43.408;24.626;2023-12-20T04:33:00;19.23;;;10.33;;
8312;SDS011;4194;43.408;24.626;2023-12-20T04:35:25;22.80;;;11.30;;
8312;SDS011;4194;43.408;24.626;2023-12-20T04:37:51;17.40;;;9.73;;
8312;SDS011;4194;43.408;24.626;2023-12-20T04:40:17;16.63;;;10.27;;
8312;SDS011;4194;43.408;24.626;2023-12-20T04:42:42;17.60;;;9.30;;
8312;SDS011;4194;43.408;24.626;2023-12-20T04:45:08;11.63;;;7.13;;
8312;SDS011;4194;43.408;24.626;2023-12-20T04:47:34;14.77;;;8.00;;
8312;SDS011;4194;43.408;24.626;2023-12-20T04:50:00;15.30;;;9.17;;
8312;SDS011;4194;43.408;24.626;2023-12-20T04:52:27;13.53;;;8.50;;
8312;SDS011;4194;43.408;24.626;2023-12-20T04:54:52;9.23;;;5.97;;
8312;SDS011;4194;43.408;24.626;2023-12-20T04:57:18;11.57;;;6.77;;
8312;SDS011;4194;43.408;24.626;2023-12-20T04:59:44;12.87;;;6.80;;
8312;SDS011;4194;43.408;24.626;2023-12-20T05:02:09;15.83;;;9.17;;
8312;SDS011;4194;43.408;24.626;2023-12-20T05:04:35;23.50;;;14.83;;
8312;SDS011;4194;43.408;24.626;2023-12-20T05:07:01;34.73;;;20.17;;
8312;SDS011;4194;43.408;24.626;2023-12-20T05:09:27;33.57;;;20.47;;
8312;SDS011;4194;43.408;24.626;2023-12-20T05:11:52;32.33;;;18.27;;
8312;SDS011;4194;43.408;24.626;2023-12-20T05:14:18;31.10;;;17.80;;
8312;SDS011;4194;43.408;24.626;2023-12-20T05:16:44;29.73;;;15.73;;
8312;SDS011;4194;43.408;24.626;2023-12-20T05:19:09;25.80;;;14.27;;
8312;SDS011;4194;43.408;24.626;2023-12-20T05:21:35;28.50;;;14.20;;
8312;SDS011;4194;43.408;24.626;2023-12-20T05:24:01;26.93;;;13.80;;
8312;SDS011;4194;43.408;24.626;2023-12-20T05:26:27;25.97;;;15.03;;
8312;SDS011;4194;43.408;24.626;2023-12-20T05:28:54;31.00;;;15.53;;
8312;SDS011;4194;43.408;24.626;2023-12-20T05:31:20;39.33;;;18.97;;
8312;SDS011;4194;43.408;24.626;2023-12-20T05:33:45;34.83;;;21.90;;
8312;SDS011;4194;43.408;24.626;2023-12-20T05:36:11;44.63;;;24.33;;
8312;SDS011;4194;43.408;24.626;2023-12-20T05:38:38;41.67;;;23.27;;
8312;SDS011;4194;43.408;24.626;2023-12-20T05:41:04;39.57;;;20.67;;
8312;SDS011;4194;43.408;24.626;2023-12-20T05:43:30;35.37;;;19.67;;
8312;SDS011;4194;43.408;24.626;2023-12-20T05:45:56;35.13;;;19.47;;
8312;SDS011;4194;43.408;24.626;2023-12-20T05:48:21;39.10;;;22.93;;
8312;SDS011;4194;43.408;24.626;2023-12-20T05:50:47;40.47;;;21.37;;
8312;SDS011;4194;43.408;24.626;2023-12-20T05:53:14;45.23;;;24.73;;
8312;SDS011;4194;43.408;24.626;2023-12-20T05:55:39;40.60;;;24.93;;
8312;SDS011;4194;43.408;24.626;2023-12-20T05:58:05;38.30;;;23.90;;
8312;SDS011;4194;43.408;24.626;2023-12-20T06:00:31;45.50;;;25.30;;
8312;SDS011;4194;43.408;24.626;2023-12-20T06:02:57;46.17;;;23.47;;
8312;SDS011;4194;43.408;24.626;2023-12-20T06:05:23;42.87;;;23.63;;
8312;SDS011;4194;43.408;24.626;2023-12-20T06:07:49;38.27;;;22.30;;
8312;SDS011;4194;43.408;24.626;2023-12-20T06:10:15;44.63;;;22.90;;
8312;SDS011;4194;43.408;24.626;2023-12-20T06:12:41;40.97;;;23.57;;
8312;SDS011;4194;43.408;24.626;2023-12-20T06:15:07;40.20;;;24.53;;
8312;SDS011;4194;43.408;24.626;2023-12-20T06:17:33;47.03;;;24.47;;
8312;SDS011;4194;43.408;24.626;2023-12-20T06:20:00;40.20;;;23.40;;
8312;SDS011;4194;43.408;24.626;2023-12-20T06:22:26;35.50;;;23.40;;
8312;SDS011;4194;43.408;24.626;2023-12-20T06:24:51;39.20;;;24.33;;
8312;SDS011;4194;43.408;24.626;2023-12-20T06:27:17;45.40;;;22.77;;
8312;SDS011;4194;43.408;24.626;2023-12-20T06:29:43;56.37;;;22.80;;
8312;SDS011;4194;43.408;24.626;2023-12-20T06:32:10;43.23;;;16.77;;
8312;SDS011;4194;43.408;24.626;2023-12-20T06:34:35;37.93;;;15.33;;
8312;SDS011;4194;43.408;24.626;2023-12-20T06:37:01;34.17;;;14.07;;
8312;SDS011;4194;43.408;24.626;2023-12-20T06:39:27;31.23;;;15.27;;
8312;SDS011;4194;43.408;24.626;2023-12-20T06:41:53;39.53;;;16.07;;
8312;SDS011;4194;43.408;24.626;2023-12-20T06:44:18;31.53;;;14.13;;
8312;SDS011;4194;43.408;24.626;2023-12-20T06:46:44;27.50;;;16.10;;
8312;SDS011;4194;43.408;24.626;2023-12-20T06:49:10;32.97;;;14.40;;
8312;SDS011;4194;43.408;24.626;2023-12-20T06:51:35;33.37;;;13.90;;
8312;SDS011;4194;43.408;24.626;2023-12-20T06:54:01;46.63;;;14.73;;
8312;SDS011;4194;43.408;24.626;2023-12-20T06:56:27;33.37;;;15.43;;
8312;SDS011;4194;43.408;24.626;2023-12-20T06:58:53;30.43;;;15.90;;
8312;SDS011;4194;43.408;24.626;2023-12-20T07:01:19;35.00;;;17.73;;
8312;SDS011;4194;43.408;24.626;2023-12-20T07:03:44;31.87;;;15.80;;
8312;SDS011;4194;43.408;24.626;2023-12-20T07:06:10;28.83;;;15.47;;
8312;SDS011;4194;43.408;24.626;2023-12-20T07:08:36;36.87;;;17.77;;
8312;SDS011;4194;43.408;24.626;2023-12-20T07:11:01;42.50;;;17.40;;
8312;SDS011;4194;43.408;24.626;2023-12-20T07:13:27;30.73;;;16.90;;
8312;SDS011;4194;43.408;24.626;2023-12-20T07:15:53;37.10;;;21.53;;
8312;SDS011;4194;43.408;24.626;2023-12-20T07:18:19;33.77;;;20.30;;
8312;SDS011;4194;43.408;24.626;2023-12-20T07:20:44;40.10;;;21.60;;
8312;SDS011;4194;43.408;24.626;2023-12-20T07:23:10;45.57;;;24.20;;
8312;SDS011;4194;43.408;24.626;2023-12-20T07:25:36;35.97;;;17.60;;
8312;SDS011;4194;43.408;24.626;2023-12-20T07:28:02;35.50;;;16.67;;
8312;SDS011;4194;43.408;24.626;2023-12-20T07:30:27;38.13;;;18.80;;
8312;SDS011;4194;43.408;24.626;2023-12-20T07:32:53;42.10;;;18.97;;
8312;SDS011;4194;43.408;24.626;2023-12-20T07:35:19;42.53;;;18.23;;
8312;SDS011;4194;43.408;24.626;2023-12-20T07:37:46;39.63;;;20.00;;
8312;SDS011;4194;43.408;24.626;2023-12-20T07:40:11;43.27;;;21.90;;
8312;SDS011;4194;43.408;24.626;2023-12-20T07:42:37;45.30;;;22.13;;
8312;SDS011;4194;43.408;24.626;2023-12-20T07:45:03;37.77;;;21.63;;
8312;SDS011;4194;43.408;24.626;2023-12-20T07:47:29;38.00;;;20.27;;
8312;SDS011;4194;43.408;24.626;2023-12-20T07:49:54;37.17;;;17.60;;
8312;SDS011;4194;43.408;24.626;2023-12-20T07:52:20;31.30;;;17.10;;
8312;SDS011;4194;43.408;24.626;2023-12-20T07:54:47;32.97;;;15.70;;
8312;SDS011;4194;43.408;24.626;2023-12-20T07:57:13;28.17;;;13.70;;
8312;SDS011;4194;43.408;24.626;2023-12-20T07:59:39;23.50;;;12.73;;
8312;SDS011;4194;43.408;24.626;2023-12-20T08:02:04;28.57;;;15.23;;
8312;SDS011;4194;43.408;24.626;2023-12-20T08:04:31;29.00;;;16.37;;
8312;SDS011;4194;43.408;24.626;2023-12-20T08:06:57;31.40;;;16.07;;
8312;SDS011;4194;43.408;24.626;2023-12-20T08:09:23;28.53;;;14.53;;
8312;SDS011;4194;43.408;24.626;2023-12-20T08:11:49;30.30;;;14.97;;
8312;SDS011;4194;43.408;24.626;2023-12-20T08:14:15;31.93;;;15.90;;
8312;SDS011;4194;43.408;24.626;2023-12-20T08:16:40;35.97;;;16.37;;
8312;SDS011;4194;43.408;24.626;2023-12-20T08:19:06;24.77;;;15.73;;
8312;SDS011;4194;43.408;24.626;2023-12-20T08:21:32;31.40;;;16.40;;
8312;SDS011;4194;43.408;24.626;2023-12-20T08:23:58;47.90;;;16.97;;
8312;SDS011;4194;43.408;24.626;2023-12-20T08:26:25;35.83;;;17.97;;
8312;SDS011;4194;43.408;24.626;2023-12-20T08:28:51;36.53;;;16.80;;
8312;SDS011;4194;43.408;24.626;2023-12-20T08:31:18;40.43;;;16.67;;
8312;SDS011;4194;43.408;24.626;2023-12-20T08:33:44;32.50;;;15.97;;
8312;SDS011;4194;43.408;24.626;2023-12-20T08:36:10;34.83;;;16.80;;
8312;SDS011;4194;43.408;24.626;2023-12-20T08:38:36;27.63;;;16.40;;
8312;SDS011;4194;43.408;24.626;2023-12-20T08:41:03;36.27;;;16.63;;
8312;SDS011;4194;43.408;24.626;2023-12-20T08:43:39;34.67;;;17.03;;
8312;SDS011;4194;43.408;24.626;2023-12-20T08:46:05;34.43;;;18.00;;
8312;SDS011;4194;43.408;24.626;2023-12-20T08:48:31;37.07;;;17.97;;
8312;SDS011;4194;43.408;24.626;2023-12-20T08:50:56;30.00;;;16.77;;
8312;SDS011;4194;43.408;24.626;2023-12-20T08:53:22;110.47;;;48.73;;
8312;SDS011;4194;43.408;24.626;2023-12-20T08:55:48;40.20;;;20.53;;
8312;SDS011;4194;43.408;24.626;2023-12-20T08:58:14;42.37;;;18.93;;
8312;SDS011;4194;43.408;24.626;2023-12-20T09:00:40;38.10;;;20.50;;
8312;SDS011;4194;43.408;24.626;2023-12-20T09:03:05;42.03;;;20.80;;
8312;SDS011;4194;43.408;24.626;2023-12-20T09:05:31;43.43;;;22.33;;
8312;SDS011;4194;43.408;24.626;2023-12-20T09:07:57;43.23;;;21.60;;
8312;SDS011;4194;43.408;24.626;2023-12-20T09:10:22;44.57;;;23.67;;
8312;SDS011;4194;43.408;24.626;2023-12-20T09:12:49;53.03;;;24.03;;
8312;SDS011;4194;43.408;24.626;2023-12-20T09:15:16;45.07;;;22.50;;
8312;SDS011;4194;43.408;24.626;2023-12-20T09:17:41;47.30;;;26.73;;
8312;SDS011;4194;43.408;24.626;2023-12-20T09:20:08;56.87;;;26.93;;
8312;SDS011;4194;43.408;24.626;2023-12-20T09:22:35;60.43;;;26.57;;
8312;SDS011;4194;43.408;24.626;2023-12-20T09:25:00;45.73;;;25.37;;
8312;SDS011;4194;43.408;24.626;2023-12-20T09:27:29;50.17;;;26.17;;
8312;SDS011;4194;43.408;24.626;2023-12-20T09:29:54;47.37;;;27.27;;
8312;SDS011;4194;43.408;24.626;2023-12-20T09:32:20;54.97;;;26.40;;
8312;SDS011;4194;43.408;24.626;2023-12-20T09:34:47;53.07;;;26.53;;
8312;SDS011;4194;43.408;24.626;2023-12-20T09:37:13;49.57;;;26.43;;
8312;SDS011;4194;43.408;24.626;2023-12-20T09:39:38;45.07;;;26.23;;
8312;SDS011;4194;43.408;24.626;2023-12-20T09:42:04;42.90;;;25.10;;
8312;SDS011;4194;43.408;24.626;2023-12-20T09:44:32;46.93;;;24.03;;
8312;SDS011;4194;43.408;24.626;2023-12-20T09:47:00;35.43;;;23.33;;
8312;SDS011;4194;43.408;24.626;2023-12-20T09:49:28;36.50;;;23.03;;
8312;SDS011;4194;43.408;24.626;2023-12-20T09:51:55;35.63;;;22.53;;
8312;SDS011;4194;43.408;24.626;2023-12-20T09:54:21;40.10;;;23.73;;
8312;SDS011;4194;43.408;24.626;2023-12-20T09:56:48;35.17;;;22.63;;
8312;SDS011;4194;43.408;24.626;2023-12-20T09:59:14;37.07;;;22.87;;
8312;SDS011;4194;43.408;24.626;2023-12-20T10:01:40;32.90;;;20.53;;
8312;SDS011;4194;43.408;24.626;2023-12-20T10:04:06;34.33;;;21.23;;
8312;SDS011;4194;43.408;24.626;2023-12-20T10:06:35;56.27;;;22.20;;
8312;SDS011;4194;43.408;24.626;2023-12-20T10:09:01;38.77;;;21.30;;
8312;SDS011;4194;43.408;24.626;2023-12-20T10:11:27;36.90;;;20.07;;
8312;SDS011;4194;43.408;24.626;2023-12-20T10:13:58;36.00;;;22.00;;
8312;SDS011;4194;43.408;24.626;2023-12-20T10:16:28;38.47;;;22.67;;
8312;SDS011;4194;43.408;24.626;2023-12-20T10:18:54;40.97;;;23.53;;
8312;SDS011;4194;43.408;24.626;2023-12-20T10:21:20;47.53;;;25.40;;
8312;SDS011;4194;43.408;24.626;2023-12-20T10:23:48;45.73;;;28.37;;
8312;SDS011;4194;43.408;24.626;2023-12-20T10:26:23;48.43;;;27.77;;
8312;SDS011;4194;43.408;24.626;2023-12-20T10:28:51;63.80;;;29.80;;
8312;SDS011;4194;43.408;24.626;2023-12-20T10:31:30;58.87;;;30.37;;
8312;SDS011;4194;43.408;24.626;2023-12-20T10:34:00;40.93;;;25.73;;
8312;SDS011;4194;43.408;24.626;2023-12-20T10:36:28;46.40;;;27.10;;
8312;SDS011;4194;43.408;24.626;2023-12-20T10:38:55;43.20;;;25.60;;
8312;SDS011;4194;43.408;24.626;2023-12-20T10:41:28;47.37;;;26.73;;
8312;SDS011;4194;43.408;24.626;2023-12-20T10:44:00;43.60;;;25.33;;
8312;SDS011;4194;43.408;24.626;2023-12-20T10:46:28;34.40;;;20.87;;
8312;SDS011;4194;43.408;24.626;2023-12-20T10:48:55;27.63;;;17.47;;
8312;SDS011;4194;43.408;24.626;2023-12-20T10:51:22;26.30;;;13.87;;
8312;SDS011;4194;43.408;24.626;2023-12-20T10:53:49;24.67;;;14.87;;
8312;SDS011;4194;43.408;24.626;2023-12-20T10:56:16;30.67;;;16.00;;
8312;SDS011;4194;43.408;24.626;2023-12-20T10:58:43;24.60;;;14.37;;
8312;SDS011;4194;43.408;24.626;2023-12-20T11:01:10;27.17;;;15.00;;
8312;SDS011;4194;43.408;24.626;2023-12-20T11:03:51;40.43;;;14.47;;
8312;SDS011;4194;43.408;24.626;2023-12-20T11:09:19;32.67;;;17.33;;
8312;SDS011;4194;43.408;24.626;2023-12-20T11:14:48;30.20;;;19.67;;
8312;SDS011;4194;43.408;24.626;2023-12-20T11:17:16;38.63;;;20.77;;
8312;SDS011;4194;43.408;24.626;2023-12-20T11:22:26;37.27;;;23.13;;
8312;SDS011;4194;43.408;24.626;2023-12-20T11:25:03;34.77;;;22.43;;
8312;SDS011;4194;43.408;24.626;2023-12-20T11:27:36;31.07;;;21.63;;
8312;SDS011;4194;43.408;24.626;2023-12-20T11:30:06;51.37;;;22.80;;
8312;SDS011;4194;43.408;24.626;2023-12-20T11:32:34;30.57;;;19.80;;
8312;SDS011;4194;43.408;24.626;2023-12-20T11:35:01;32.00;;;17.17;;
8312;SDS011;4194;43.408;24.626;2023-12-20T11:37:42;28.17;;;15.37;;
8312;SDS011;4194;43.408;24.626;2023-12-20T11:40:11;27.67;;;14.97;;
8312;SDS011;4194;43.408;24.626;2023-12-20T11:42:41;28.57;;;13.87;;
8312;SDS011;4194;43.408;24.626;2023-12-20T11:45:08;22.20;;;13.30;;
8312;SDS011;4194;43.408;24.626;2023-12-20T11:47:47;12.53;;;8.10;;
8312;SDS011;4194;43.408;24.626;2023-12-20T11:50:15;12.03;;;7.47;;
8312;SDS011;4194;43.408;24.626;2023-12-20T11:52:41;13.37;;;8.40;;
8312;SDS011;4194;43.408;24.626;2023-12-20T11:55:06;19.47;;;8.50;;
8312;SDS011;4194;43.408;24.626;2023-12-20T11:57:33;13.70;;;7.70;;
8312;SDS011;4194;43.408;24.626;2023-12-20T11:59:59;12.23;;;7.77;;
8312;SDS011;4194;43.408;24.626;2023-12-20T12:02:25;13.37;;;7.70;;
8312;SDS011;4194;43.408;24.626;2023-12-20T12:04:51;17.03;;;7.50;;
8312;SDS011;4194;43.408;24.626;2023-12-20T12:07:16;12.53;;;7.00;;
8312;SDS011;4194;43.408;24.626;2023-12-20T12:09:43;10.77;;;6.50;;
8312;SDS011;4194;43.408;24.626;2023-12-20T12:12:09;10.90;;;5.90;;
8312;SDS011;4194;43.408;24.626;2023-12-20T12:14:36;10.90;;;6.47;;
8312;SDS011;4194;43.408;24.626;2023-12-20T12:17:03;8.67;;;5.53;;
8312;SDS011;4194;43.408;24.626;2023-12-20T12:19:29;15.10;;;5.73;;
8312;SDS011;4194;43.408;24.626;2023-12-20T12:27:11;9.83;;;5.97;;
8312;SDS011;4194;43.408;24.626;2023-12-20T12:29:39;9.80;;;5.40;;
8312;SDS011;4194;43.408;24.626;2023-12-20T12:32:05;9.90;;;6.23;;
8312;SDS011;4194;43.408;24.626;2023-12-20T12:34:32;10.90;;;5.37;;
8312;SDS011;4194;43.408;24.626;2023-12-20T12:37:01;9.83;;;5.80;;
8312;SDS011;4194;43.408;24.626;2023-12-20T12:39:32;9.47;;;5.40;;
8312;SDS011;4194;43.408;24.626;2023-12-20T12:41:57;8.93;;;5.07;;
8312;SDS011;4194;43.408;24.626;2023-12-20T12:44:24;9.20;;;5.40;;
8312;SDS011;4194;43.408;24.626;2023-12-20T12:46:50;10.50;;;5.63;;
8312;SDS011;4194;43.408;24.626;2023-12-20T12:49:16;10.43;;;6.00;;
8312;SDS011;4194;43.408;24.626;2023-12-20T12:51:42;9.60;;;5.77;;
8312;SDS011;4194;43.408;24.626;2023-12-20T12:54:08;9.83;;;5.97;;
8312;SDS011;4194;43.408;24.626;2023-12-20T12:56:35;9.53;;;5.07;;
8312;SDS011;4194;43.408;24.626;2023-12-20T12:59:01;11.80;;;5.40;;
8312;SDS011;4194;43.408;24.626;2023-12-20T13:01:27;12.70;;;5.37;;
8312;SDS011;4194;43.408;24.626;2023-12-20T13:03:53;8.87;;;4.90;;
8312;SDS011;4194;43.408;24.626;2023-12-20T13:06:19;9.67;;;4.20;;
8312;SDS011;4194;43.408;24.626;2023-12-20T13:08:45;12.47;;;5.23;;
8312;SDS011;4194;43.408;24.626;2023-12-20T13:11:11;9.17;;;4.83;;
8312;SDS011;4194;43.408;24.626;2023-12-20T13:13:36;6.20;;;4.30;;
8312;SDS011;4194;43.408;24.626;2023-12-20T13:16:02;8.80;;;4.60;;
8312;SDS011;4194;43.408;24.626;2023-12-20T13:18:29;11.60;;;5.87;;
8312;SDS011;4194;43.408;24.626;2023-12-20T13:20:54;11.90;;;4.50;;
8312;SDS011;4194;43.408;24.626;2023-12-20T13:23:20;11.57;;;5.10;;
8312;SDS011;4194;43.408;24.626;2023-12-20T13:25:46;15.83;;;5.47;;
8312;SDS011;4194;43.408;24.626;2023-12-20T13:28:11;8.77;;;5.17;;
8312;SDS011;4194;43.408;24.626;2023-12-20T13:30:38;9.23;;;5.80;;
8312;SDS011;4194;43.408;24.626;2023-12-20T13:33:04;11.90;;;5.70;;
8312;SDS011;4194;43.408;24.626;2023-12-20T13:35:30;13.30;;;6.40;;
8312;SDS011;4194;43.408;24.626;2023-12-20T13:37:57;18.40;;;8.30;;
8312;SDS011;4194;43.408;24.626;2023-12-20T13:40:26;14.33;;;7.50;;
8312;SDS011;4194;43.408;24.626;2023-12-20T13:42:52;9.97;;;6.40;;
8312;SDS011;4194;43.408;24.626;2023-12-20T13:45:17;11.50;;;6.23;;
8312;SDS011;4194;43.408;24.626;2023-12-20T13:47:43;11.73;;;6.27;;
8312;SDS011;4194;43.408;24.626;2023-12-20T13:50:10;8.97;;;5.80;;
8312;SDS011;4194;43.408;24.626;2023-12-20T13:52:35;12.30;;;5.23;;
8312;SDS011;4194;43.408;24.626;2023-12-20T13:55:01;7.83;;;5.17;;
8312;SDS011;4194;43.408;24.626;2023-12-20T13:57:30;9.20;;;5.43;;
8312;SDS011;4194;43.408;24.626;2023-12-20T13:59:56;12.53;;;5.83;;
8312;SDS011;4194;43.408;24.626;2023-12-20T14:02:24;12.13;;;5.07;;
8312;SDS011;4194;43.408;24.626;2023-12-20T14:04:51;15.57;;;6.40;;
8312;SDS011;4194;43.408;24.626;2023-12-20T14:07:17;16.70;;;6.80;;
8312;SDS011;4194;43.408;24.626;2023-12-20T14:09:43;19.83;;;10.27;;
8312;SDS011;4194;43.408;24.626;2023-12-20T14:12:10;14.70;;;9.40;;
8312;SDS011;4194;43.408;24.626;2023-12-20T14:14:37;16.03;;;8.90;;
8312;SDS011;4194;43.408;24.626;2023-12-20T14:17:03;17.80;;;8.70;;
8312;SDS011;4194;43.408;24.626;2023-12-20T14:19:29;14.43;;;8.13;;
8312;SDS011;4194;43.408;24.626;2023-12-20T14:21:54;24.23;;;13.87;;
8312;SDS011;4194;43.408;24.626;2023-12-20T14:24:20;16.93;;;9.37;;
8312;SDS011;4194;43.408;24.626;2023-12-20T14:26:46;13.23;;;8.20;;
8312;SDS011;4194;43.408;24.626;2023-12-20T14:29:12;17.70;;;8.30;;
8312;SDS011;4194;43.408;24.626;2023-12-20T14:31:37;12.40;;;8.83;;
8312;SDS011;4194;43.408;24.626;2023-12-20T14:34:05;20.17;;;10.77;;
8312;SDS011;4194;43.408;24.626;2023-12-20T14:36:31;20.10;;;9.60;;
8312;SDS011;4194;43.408;24.626;2023-12-20T14:38:57;18.13;;;9.47;;
8312;SDS011;4194;43.408;24.626;2023-12-20T14:41:23;15.13;;;8.90;;
8312;SDS011;4194;43.408;24.626;2023-12-20T14:43:50;15.17;;;9.27;;
8312;SDS011;4194;43.408;24.626;2023-12-20T14:46:17;23.90;;;10.27;;
8312;SDS011;4194;43.408;24.626;2023-12-20T14:48:43;17.53;;;10.00;;